Time;durP1;ratioP1;P1;durP2;ratioP2;P2;SDS_P1;SDS_P2;PMS_P1;PMS_P2;Temp;Humidity;BMP_temperature;BMP_pressure;BME280_temperature;BME280_humidity;BME280_pressure;Samples;Min_cycle;Max_cycle;Signal;HPM_P1;HPM_P2
2022/12/12 00:02:10;;;;;;;31.53;18.23;;;-1.00;99.90;;;;;;5072347;28;20242;-82
2022/12/12 00:04:37;;;;;;;32.67;19.03;;;-1.00;99.90;;;;;;5069137;28;20757;-81
2022/12/12 00:07:04;;;;;;;31.80;19.03;;;-1.10;99.90;;;;;;5080959;28;20339;-81
2022/12/12 00:09:31;;;;;;;35.07;18.40;;;-1.10;99.90;;;;;;5094543;27;20225;-81
2022/12/12 00:12:00;;;;;;;28.73;18.00;;;-1.10;99.90;;;;;;5087543;27;20258;-82
2022/12/12 00:14:27;;;;;;;34.17;20.00;;;-1.10;99.90;;;;;;5085993;27;20305;-81
2022/12/12 00:16:55;;;;;;;29.53;18.60;;;-1.10;99.90;;;;;;5092831;28;20229;-81
2022/12/12 00:19:22;;;;;;;35.07;18.97;;;-1.10;99.90;;;;;;5096406;27;20295;-81
2022/12/12 00:21:49;;;;;;;29.43;17.80;;;-1.10;99.90;;;;;;5082194;28;20372;-81
2022/12/12 00:24:16;;;;;;;31.67;18.50;;;-1.10;99.90;;;;;;5111807;27;20217;-81
2022/12/12 00:26:43;;;;;;;32.43;18.97;;;-1.10;99.90;;;;;;5089164;28;20238;-82
2022/12/12 00:29:10;;;;;;;34.17;19.27;;;-1.10;99.90;;;;;;5075407;28;20226;-82
2022/12/12 00:31:37;;;;;;;30.43;18.53;;;-1.10;99.90;;;;;;5073478;28;20226;-82
2022/12/12 00:34:06;;;;;;;30.17;18.33;;;-1.20;99.90;;;;;;5074533;28;20222;-82
2022/12/12 00:36:33;;;;;;;31.07;17.90;;;-1.20;99.90;;;;;;5079699;28;20222;-82
2022/12/12 00:39:00;;;;;;;30.90;18.27;;;-1.20;99.90;;;;;;5083817;28;20784;-82
2022/12/12 00:41:27;;;;;;;33.57;18.30;;;-1.20;99.90;;;;;;5107719;27;20226;-84
2022/12/12 00:43:54;;;;;;;35.43;19.23;;;-1.30;99.90;;;;;;5090543;27;20304;-82
2022/12/12 00:46:23;;;;;;;33.77;18.40;;;-1.30;99.90;;;;;;5079968;28;20225;-82
2022/12/12 00:48:53;;;;;;;34.27;18.57;;;-1.30;99.90;;;;;;5110360;27;20221;-82
2022/12/12 00:51:22;;;;;;;30.00;17.50;;;-1.40;99.90;;;;;;5086553;28;20586;-82
2022/12/12 00:53:50;;;;;;;29.47;17.53;;;-1.40;99.90;;;;;;5092152;27;20224;-83
2022/12/12 00:56:22;;;;;;;29.47;17.30;;;-1.40;99.90;;;;;;5091095;27;20222;-82
2022/12/12 00:58:50;;;;;;;30.90;17.80;;;-1.50;99.90;;;;;;5086438;28;20251;-83
2022/12/12 01:01:20;;;;;;;32.03;18.67;;;-1.50;99.90;;;;;;5093746;27;20254;-81
2022/12/12 01:03:47;;;;;;;32.80;17.93;;;-1.50;99.90;;;;;;5098184;27;20217;-82
2022/12/12 01:06:14;;;;;;;28.47;16.80;;;-1.60;99.90;;;;;;5096591;27;20326;-81
2022/12/12 01:08:43;;;;;;;27.83;16.33;;;-1.60;99.90;;;;;;5103743;27;20232;-83
2022/12/12 01:11:11;;;;;;;29.53;17.97;;;-1.70;99.90;;;;;;5094158;27;20221;-84
2022/12/12 01:13:39;;;;;;;33.00;17.53;;;-1.70;99.90;;;;;;5107676;27;20220;-82
2022/12/12 01:16:07;;;;;;;32.37;17.13;;;-1.80;99.90;;;;;;5081832;28;20783;-84
2022/12/12 01:18:34;;;;;;;31.27;17.03;;;-1.80;99.90;;;;;;5085089;27;20245;-81
2022/12/12 01:21:01;;;;;;;30.77;17.73;;;-1.80;99.90;;;;;;5086403;28;20318;-82
2022/12/12 01:23:28;;;;;;;30.27;17.40;;;-1.90;99.90;;;;;;5085132;28;20464;-82
2022/12/12 01:26:01;;;;;;;28.77;17.30;;;-1.90;99.90;;;;;;5080289;28;20225;-82
2022/12/12 01:28:28;;;;;;;27.57;16.47;;;-2.00;99.90;;;;;;5078662;28;20228;-82
2022/12/12 01:30:54;;;;;;;31.37;18.00;;;-2.10;99.90;;;;;;5076167;28;20221;-83
2022/12/12 01:33:21;;;;;;;33.50;17.73;;;-2.10;99.90;;;;;;5076376;28;20239;-82
2022/12/12 01:35:48;;;;;;;29.50;17.40;;;-2.20;99.90;;;;;;5079151;28;20237;-81
2022/12/12 01:38:15;;;;;;;32.60;17.80;;;-2.30;99.90;;;;;;5078842;28;20220;-84
2022/12/12 01:40:41;;;;;;;33.80;17.93;;;-2.30;99.90;;;;;;5082692;28;20223;-82
2022/12/12 01:43:12;;;;;;;32.37;18.20;;;-2.40;99.90;;;;;;5092038;27;20222;-82
2022/12/12 01:46:18;;;;;;;33.57;18.17;;;-2.40;99.90;;;;;;5093866;28;20278;-82
2022/12/12 01:48:49;;;;;;;31.93;17.97;;;-2.50;99.90;;;;;;5097703;28;20311;-82
2022/12/12 01:51:19;;;;;;;33.70;17.47;;;-2.50;99.90;;;;;;5107772;27;20215;-83
2022/12/12 01:53:48;;;;;;;32.20;18.67;;;-2.60;99.90;;;;;;5102544;27;20233;-83
2022/12/12 01:56:19;;;;;;;27.10;16.00;;;-2.70;99.90;;;;;;5101319;27;20729;-81
2022/12/12 01:58:50;;;;;;;28.80;16.37;;;-2.70;99.90;;;;;;5093507;28;20305;-82
2022/12/12 02:01:18;;;;;;;30.70;16.47;;;-2.80;99.90;;;;;;5090584;27;20226;-82
2022/12/12 02:03:48;;;;;;;30.37;17.43;;;-2.80;99.90;;;;;;5097874;28;20223;-81
2022/12/12 02:06:18;;;;;;;29.67;16.90;;;-2.90;99.90;;;;;;5093975;27;20230;-82
2022/12/12 02:08:46;;;;;;;31.10;17.17;;;-2.90;99.90;;;;;;5127364;27;20752;-82
2022/12/12 02:11:13;;;;;;;31.90;18.27;;;-3.00;99.90;;;;;;5082396;28;20209;-81
2022/12/12 02:13:40;;;;;;;32.63;18.40;;;-3.00;99.90;;;;;;5079715;28;20707;-82
2022/12/12 02:16:17;;;;;;;33.07;18.40;;;-3.10;99.90;;;;;;5079361;28;20312;-81
2022/12/12 02:18:52;;;;;;;33.17;17.53;;;-3.10;99.90;;;;;;5095091;27;20226;-82
2022/12/12 02:21:26;;;;;;;31.37;18.13;;;-3.10;99.90;;;;;;5083513;28;21033;-82
2022/12/12 02:24:26;;;;;;;32.67;18.20;;;-3.20;99.90;;;;;;5081818;28;20232;-83
2022/12/12 02:27:12;;;;;;;33.17;18.90;;;-3.20;99.90;;;;;;5091321;28;20258;-82
2022/12/12 02:30:10;;;;;;;32.50;18.40;;;-3.20;99.90;;;;;;5084811;28;20213;-82
2022/12/12 02:32:53;;;;;;;33.97;18.23;;;-3.30;99.90;;;;;;5096168;28;20229;-82
2022/12/12 02:35:26;;;;;;;33.47;17.57;;;-3.30;99.90;;;;;;5094952;27;20798;-83
2022/12/12 02:38:05;;;;;;;31.53;17.37;;;-3.30;99.90;;;;;;5098712;28;20243;-82
2022/12/12 02:40:38;;;;;;;35.57;18.67;;;-3.30;99.90;;;;;;5089522;28;20233;-82
2022/12/12 02:43:11;;;;;;;32.03;17.37;;;-3.40;99.90;;;;;;5118156;27;20225;-83
2022/12/12 02:45:40;;;;;;;36.47;19.23;;;-3.40;99.90;;;;;;5099133;27;20234;-81
2022/12/12 02:48:14;;;;;;;33.50;18.27;;;-3.40;99.90;;;;;;5133561;27;20305;-81
2022/12/12 02:50:43;;;;;;;36.00;19.67;;;-3.50;99.90;;;;;;5105142;27;20220;-81
2022/12/12 02:53:10;;;;;;;36.90;23.30;;;-3.40;99.90;;;;;;5098640;27;20216;-82
2022/12/12 02:55:36;;;;;;;35.10;19.70;;;-3.50;99.90;;;;;;5103916;27;20230;-82
2022/12/12 02:58:05;;;;;;;32.67;18.40;;;-3.50;99.90;;;;;;5082966;27;20306;-81
2022/12/12 03:00:40;;;;;;;34.10;19.43;;;-3.60;99.90;;;;;;5098941;27;20214;-82
2022/12/12 03:09:16;;;;;;;32.47;17.67;;;-3.70;99.90;;;;;;5097682;27;20226;-83
2022/12/12 03:11:55;;;;;;;36.47;19.13;;;-3.80;99.90;;;;;;5096594;27;20247;-83
2022/12/12 03:14:27;;;;;;;30.70;17.33;;;-3.80;99.90;;;;;;5089612;27;20228;-82
2022/12/12 03:17:04;;;;;;;31.77;18.57;;;-3.90;99.90;;;;;;5076421;28;20281;-81
2022/12/12 03:19:40;;;;;;;36.10;20.00;;;-4.00;99.90;;;;;;5097529;27;20302;-82
2022/12/12 03:22:11;;;;;;;39.43;19.37;;;-4.00;99.90;;;;;;5095860;27;20210;-82
2022/12/12 03:24:44;;;;;;;37.13;18.57;;;-4.00;99.90;;;;;;5089471;27;20729;-81
2022/12/12 03:27:16;;;;;;;30.63;17.37;;;-4.10;99.90;;;;;;5096300;27;20211;-81
2022/12/12 03:29:48;;;;;;;35.83;18.00;;;-4.20;99.90;;;;;;5104507;27;20700;-82
2022/12/12 03:32:19;;;;;;;30.00;16.20;;;-4.20;99.90;;;;;;5119990;27;20850;-81
2022/12/12 03:34:52;;;;;;;33.57;18.37;;;-4.20;99.90;;;;;;5094945;28;20216;-82
2022/12/12 03:37:23;;;;;;;31.00;17.50;;;-4.30;99.90;;;;;;5094681;27;20711;-81
2022/12/12 03:39:54;;;;;;;35.87;17.80;;;-4.30;99.90;;;;;;5100836;28;20735;-81
2022/12/12 03:42:24;;;;;;;35.23;17.57;;;-4.40;99.90;;;;;;5101576;27;20218;-80
2022/12/12 03:44:56;;;;;;;31.87;17.83;;;-4.40;99.90;;;;;;5083000;28;20235;-82
2022/12/12 03:47:27;;;;;;;33.87;17.93;;;-4.50;99.90;;;;;;5079036;28;20224;-81
2022/12/12 03:50:03;;;;;;;34.73;18.80;;;-4.50;99.90;;;;;;5089082;28;21013;-80
2022/12/12 03:52:33;;;;;;;31.13;17.57;;;-4.50;99.90;;;;;;5095370;28;20225;-85
2022/12/12 03:55:04;;;;;;;92.37;59.13;;;-4.60;99.90;;;;;;5085554;28;20918;-81
2022/12/12 03:57:34;;;;;;;44.83;25.90;;;-4.60;99.90;;;;;;5081006;28;20222;-82
2022/12/12 04:00:05;;;;;;;32.93;19.30;;;-4.70;99.90;;;;;;5097665;28;20224;-82
2022/12/12 04:02:44;;;;;;;37.47;19.63;;;-4.70;99.90;;;;;;5089754;27;20214;-81
2022/12/12 04:05:16;;;;;;;38.73;20.03;;;-4.70;99.90;;;;;;5091380;28;20244;-81
2022/12/12 04:07:48;;;;;;;31.90;17.30;;;-4.70;99.90;;;;;;5100303;27;20951;-80
2022/12/12 04:13:09;;;;;;;34.93;18.80;;;-4.70;99.90;;;;;;5091840;28;20262;-80
2022/12/12 04:15:56;;;;;;;33.90;18.53;;;-4.80;99.90;;;;;;5085061;28;20908;-81
2022/12/12 04:18:33;;;;;;;38.47;19.43;;;-4.80;99.90;;;;;;5077688;28;20206;-81
2022/12/12 04:24:05;;;;;;;33.57;18.10;;;-4.80;99.90;;;;;;5096379;28;20260;-81
2022/12/12 04:26:40;;;;;;;32.10;16.77;;;-4.80;99.90;;;;;;5093497;27;20308;-83
2022/12/12 04:29:31;;;;;;;32.67;16.77;;;-4.90;99.90;;;;;;5088199;28;20218;-81
2022/12/12 04:32:07;;;;;;;31.27;17.00;;;-4.90;99.90;;;;;;5073567;28;20227;-82
2022/12/12 04:34:39;;;;;;;36.23;18.13;;;-4.90;99.90;;;;;;5083784;28;20240;-83
2022/12/12 04:37:10;;;;;;;32.70;17.63;;;-5.00;99.90;;;;;;5097803;28;20223;-81
2022/12/12 04:39:39;;;;;;;34.27;17.23;;;-5.00;99.90;;;;;;5084159;28;20232;-82
2022/12/12 04:42:09;;;;;;;33.23;17.30;;;-5.10;99.90;;;;;;5080556;28;20954;-82
2022/12/12 04:44:39;;;;;;;32.13;17.03;;;-5.10;99.90;;;;;;5084602;28;20730;-82
2022/12/12 04:47:11;;;;;;;33.67;17.63;;;-5.10;99.90;;;;;;5066892;28;20237;-80
2022/12/12 04:49:41;;;;;;;36.67;18.07;;;-5.20;99.90;;;;;;5073301;28;20231;-81
2022/12/12 04:52:12;;;;;;;38.67;19.63;;;-5.20;99.90;;;;;;5077811;28;20239;-80
2022/12/12 04:54:43;;;;;;;34.97;18.60;;;-5.30;99.90;;;;;;5075965;28;20254;-80
2022/12/12 04:57:13;;;;;;;33.40;18.30;;;-5.30;99.90;;;;;;5071739;28;20222;-80
2022/12/12 04:59:40;;;;;;;38.67;18.90;;;-5.30;99.90;;;;;;5089092;28;20684;-80
2022/12/12 05:02:16;;;;;;;36.27;18.80;;;-5.30;99.90;;;;;;5080863;28;20220;-81
2022/12/12 05:04:49;;;;;;;35.87;19.37;;;-5.40;99.90;;;;;;5086712;28;20233;-80
2022/12/12 05:07:27;;;;;;;35.07;18.57;;;-5.40;99.90;;;;;;5101319;27;20213;-80
2022/12/12 05:09:54;;;;;;;37.80;19.23;;;-5.40;99.90;;;;;;5098524;28;20225;-80
2022/12/12 05:12:21;;;;;;;38.50;19.50;;;-5.40;99.90;;;;;;5095679;28;20218;-81
2022/12/12 05:14:48;;;;;;;34.30;18.10;;;-5.50;99.90;;;;;;5095981;28;20238;-81
2022/12/12 05:17:20;;;;;;;44.93;20.33;;;-5.50;99.90;;;;;;5099528;28;20221;-81
2022/12/12 05:19:46;;;;;;;40.57;19.03;;;-5.50;99.90;;;;;;5105213;28;20235;-81
2022/12/12 05:22:13;;;;;;;34.90;18.13;;;-5.50;99.90;;;;;;5088758;28;20655;-82
2022/12/12 05:24:42;;;;;;;39.43;20.13;;;-5.50;99.90;;;;;;5096024;27;20225;-82
2022/12/12 05:27:11;;;;;;;36.90;19.53;;;-5.40;99.90;;;;;;5082850;28;20604;-81
2022/12/12 05:29:38;;;;;;;41.93;19.73;;;-5.50;99.90;;;;;;5097956;28;20241;-83
2022/12/12 05:32:05;;;;;;;38.90;20.70;;;-5.40;99.90;;;;;;5078171;28;20215;-82
2022/12/12 05:34:32;;;;;;;35.17;18.90;;;-5.40;99.90;;;;;;5087928;28;20241;-82
2022/12/12 05:36:59;;;;;;;39.17;19.77;;;-5.50;99.90;;;;;;5088195;28;20225;-84
2022/12/12 05:39:26;;;;;;;37.37;19.60;;;-5.50;99.90;;;;;;5081296;28;20331;-81
2022/12/12 05:41:54;;;;;;;34.40;18.50;;;-5.50;99.90;;;;;;5080587;28;20365;-81
2022/12/12 05:44:21;;;;;;;40.07;19.80;;;-5.40;99.90;;;;;;5112579;27;20584;-80
2022/12/12 05:46:47;;;;;;;35.63;19.70;;;-5.60;99.90;;;;;;5087896;28;20803;-83
2022/12/12 05:49:14;;;;;;;38.27;20.33;;;-5.60;99.90;;;;;;5076545;28;20260;-85
2022/12/12 05:51:41;;;;;;;34.87;19.00;;;-5.60;99.90;;;;;;5093228;27;20729;-83
2022/12/12 05:54:08;;;;;;;36.80;19.30;;;-5.60;99.90;;;;;;5093782;28;20823;-83
2022/12/12 05:56:35;;;;;;;36.33;19.27;;;-5.70;99.90;;;;;;5092630;27;20641;-83
2022/12/12 05:59:03;;;;;;;35.73;19.23;;;-5.70;99.90;;;;;;5101376;27;20239;-85
2022/12/12 06:01:30;;;;;;;37.30;18.70;;;-5.70;99.90;;;;;;5092295;27;20232;-80
2022/12/12 06:03:57;;;;;;;41.07;20.77;;;-5.80;99.90;;;;;;5104979;27;20898;-82
2022/12/12 06:06:24;;;;;;;33.93;19.20;;;-5.80;99.90;;;;;;5103844;28;20236;-81
2022/12/12 06:08:50;;;;;;;36.03;18.47;;;-5.80;99.90;;;;;;5102020;27;20708;-83
2022/12/12 06:11:17;;;;;;;40.07;19.97;;;-5.90;99.90;;;;;;5091675;27;20210;-83
2022/12/12 06:13:44;;;;;;;35.07;18.90;;;-5.90;99.90;;;;;;5101693;27;20236;-83
2022/12/12 06:16:15;;;;;;;33.23;17.53;;;-5.90;99.90;;;;;;5104247;27;20601;-85
2022/12/12 06:18:41;;;;;;;37.60;18.60;;;-5.90;99.90;;;;;;5100276;27;20225;-84
2022/12/12 06:21:10;;;;;;;38.80;19.03;;;-6.00;99.90;;;;;;5095307;27;20227;-85
2022/12/12 06:23:37;;;;;;;40.17;19.83;;;-6.00;99.90;;;;;;5098453;27;20856;-83
2022/12/12 06:26:04;;;;;;;33.33;17.63;;;-6.00;99.90;;;;;;5085638;28;20231;-83
2022/12/12 06:28:31;;;;;;;37.37;18.57;;;-6.10;99.90;;;;;;5093456;28;20221;-83
2022/12/12 06:30:58;;;;;;;35.27;18.27;;;-6.10;99.90;;;;;;5106505;28;20821;-80
2022/12/12 06:33:27;;;;;;;35.30;18.70;;;-6.10;99.90;;;;;;5105137;27;20226;-80
2022/12/12 06:35:58;;;;;;;37.17;18.53;;;-6.10;99.90;;;;;;5099739;28;20242;-79
2022/12/12 06:38:25;;;;;;;41.47;19.60;;;-6.20;99.90;;;;;;5105934;27;20659;-81
2022/12/12 06:40:53;;;;;;;43.10;20.87;;;-6.20;99.90;;;;;;5104968;28;20229;-80
2022/12/12 06:43:20;;;;;;;38.40;20.73;;;-6.10;99.90;;;;;;5105472;27;20214;-80
2022/12/12 06:45:47;;;;;;;39.23;20.40;;;-6.10;99.90;;;;;;5105080;28;20524;-81
2022/12/12 06:48:13;;;;;;;47.90;20.70;;;-6.10;99.90;;;;;;5103632;28;20604;-80
2022/12/12 06:50:43;;;;;;;35.43;18.17;;;-6.10;99.90;;;;;;5106325;27;20374;-79
2022/12/12 06:53:11;;;;;;;40.23;19.80;;;-6.10;99.90;;;;;;5105425;28;20705;-80
2022/12/12 06:55:41;;;;;;;41.20;20.67;;;-6.00;99.90;;;;;;5106174;27;20250;-80
2022/12/12 06:58:08;;;;;;;34.77;18.60;;;-6.00;99.90;;;;;;5105706;27;20230;-81
2022/12/12 07:00:35;;;;;;;41.73;19.43;;;-5.90;99.90;;;;;;5104987;28;20237;-80
2022/12/12 07:03:02;;;;;;;37.13;18.37;;;-5.90;99.90;;;;;;5097431;28;20234;-80
2022/12/12 07:05:28;;;;;;;37.93;19.57;;;-5.80;99.90;;;;;;5107800;28;20790;-80
2022/12/12 07:07:58;;;;;;;42.73;19.80;;;-5.80;99.90;;;;;;5108403;28;20257;-81
2022/12/12 07:10:24;;;;;;;79.40;38.77;;;-5.70;99.90;;;;;;5107385;27;20309;-80
2022/12/12 07:12:53;;;;;;;38.23;20.87;;;-5.70;99.90;;;;;;5108416;28;20350;-80
2022/12/12 07:15:20;;;;;;;36.70;19.07;;;-5.70;99.90;;;;;;5106760;28;20265;-80
2022/12/12 07:17:46;;;;;;;40.73;20.20;;;-5.60;99.90;;;;;;5107994;28;20226;-80
2022/12/12 07:20:13;;;;;;;36.90;19.90;;;-5.70;99.90;;;;;;5105214;28;20289;-80
2022/12/12 07:22:42;;;;;;;37.40;20.33;;;-5.70;99.90;;;;;;5110415;27;20224;-81
2022/12/12 07:25:11;;;;;;;35.20;19.17;;;-5.70;99.90;;;;;;5085027;28;20683;-82
2022/12/12 07:27:37;;;;;;;35.00;19.80;;;-5.70;99.90;;;;;;5075680;28;20726;-81
2022/12/12 07:30:04;;;;;;;36.97;19.97;;;-5.70;99.90;;;;;;5089125;28;20563;-83
2022/12/12 07:32:31;;;;;;;33.63;18.93;;;-5.70;99.90;;;;;;5110886;27;20713;-83
2022/12/12 07:34:58;;;;;;;38.97;20.13;;;-5.80;99.90;;;;;;5095347;28;20227;-83
2022/12/12 07:37:27;;;;;;;35.70;19.60;;;-5.80;99.90;;;;;;5106376;27;20225;-82
2022/12/12 07:39:53;;;;;;;42.27;21.13;;;-5.80;99.90;;;;;;5093818;28;20318;-82
2022/12/12 07:42:21;;;;;;;44.50;22.73;;;-5.80;99.90;;;;;;5107197;27;20219;-83
2022/12/12 07:44:48;;;;;;;37.97;20.73;;;-5.90;99.90;;;;;;5095564;28;20233;-81
2022/12/12 07:47:15;;;;;;;38.73;19.97;;;-5.90;99.90;;;;;;5117478;27;20227;-82
2022/12/12 07:49:41;;;;;;;56.97;29.27;;;-5.90;99.90;;;;;;5104174;27;20233;-81
2022/12/12 07:52:08;;;;;;;42.33;21.30;;;-5.90;99.90;;;;;;5081303;28;20686;-81
2022/12/12 07:54:35;;;;;;;36.23;19.50;;;-6.00;99.90;;;;;;5080912;28;20225;-80
2022/12/12 07:57:02;;;;;;;38.07;20.20;;;-5.90;99.90;;;;;;5085652;28;20236;-82
2022/12/12 07:59:32;;;;;;;40.90;20.13;;;-6.00;99.90;;;;;;5087675;28;20708;-81
2022/12/12 08:01:58;;;;;;;40.20;20.23;;;-6.00;99.90;;;;;;5098586;27;20214;-80
2022/12/12 08:04:25;;;;;;;38.63;20.63;;;-6.00;99.90;;;;;;5077866;28;20234;-81
2022/12/12 08:06:52;;;;;;;45.27;24.03;;;-6.00;99.90;;;;;;5094585;28;20237;-81
2022/12/12 08:09:19;;;;;;;41.23;19.97;;;-6.10;99.90;;;;;;5082864;28;20230;-80
2022/12/12 08:11:45;;;;;;;157.87;74.63;;;-6.00;99.90;;;;;;5086263;28;20267;-80
2022/12/12 08:14:12;;;;;;;123.20;59.60;;;-6.00;99.90;;;;;;5084876;27;20244;-84
2022/12/12 08:16:40;;;;;;;73.10;35.43;;;-6.00;99.90;;;;;;5095480;27;20469;-81
2022/12/12 08:19:08;;;;;;;52.43;26.27;;;-5.90;99.90;;;;;;5085444;28;20642;-82
2022/12/12 08:21:37;;;;;;;48.03;24.73;;;-5.70;99.90;;;;;;5081297;28;20251;-79
2022/12/12 08:24:04;;;;;;;54.03;27.37;;;-5.60;99.90;;;;;;5067698;28;20273;-79
2022/12/12 08:26:31;;;;;;;46.40;26.20;;;-5.30;99.90;;;;;;5070614;28;20239;-80
2022/12/12 08:28:58;;;;;;;41.23;23.67;;;-5.00;99.90;;;;;;5069947;28;20223;-79
2022/12/12 08:31:26;;;;;;;38.37;20.33;;;-4.70;99.90;;;;;;5071029;28;20225;-80
2022/12/12 08:33:54;;;;;;;39.73;20.33;;;-4.30;99.90;;;;;;5069184;28;20652;-79
2022/12/12 08:36:22;;;;;;;38.03;19.00;;;-4.00;99.90;;;;;;5059767;28;20301;-79
2022/12/12 08:38:50;;;;;;;34.67;18.80;;;-3.50;99.90;;;;;;5082996;28;20830;-79
2022/12/12 08:41:17;;;;;;;35.27;19.40;;;-3.10;99.90;;;;;;5069247;28;20634;-80
2022/12/12 08:43:44;;;;;;;36.43;19.97;;;-2.70;99.90;;;;;;5066277;28;20232;-79
2022/12/12 08:46:12;;;;;;;35.63;20.60;;;-2.40;99.90;;;;;;5080848;28;20225;-79
2022/12/12 08:48:39;;;;;;;34.43;19.27;;;-2.00;99.90;;;;;;5063789;28;20237;-79
2022/12/12 08:51:07;;;;;;;36.97;20.67;;;-1.50;99.90;;;;;;5066711;28;20234;-79
2022/12/12 08:53:34;;;;;;;38.50;21.93;;;-1.10;99.90;;;;;;5100436;28;20308;-80
2022/12/12 08:56:01;;;;;;;37.53;21.73;;;-0.70;99.90;;;;;;5109538;28;20247;-79
2022/12/12 08:58:27;;;;;;;34.63;20.50;;;-0.30;99.90;;;;;;5108912;28;20680;-80
2022/12/12 09:00:56;;;;;;;32.10;19.87;;;0.10;99.90;;;;;;5112889;27;20671;-80
2022/12/12 09:03:23;;;;;;;32.53;21.00;;;0.40;99.90;;;;;;5066872;28;20802;-79
2022/12/12 09:05:49;;;;;;;32.80;20.40;;;0.70;99.90;;;;;;5089246;27;20230;-82
2022/12/12 09:08:18;;;;;;;30.77;19.03;;;1.00;99.90;;;;;;5102811;27;20214;-84
2022/12/12 09:10:55;;;;;;;33.27;19.23;;;1.20;99.90;;;;;;5108183;28;20758;-80
2022/12/12 09:13:21;;;;;;;34.70;20.77;;;1.50;99.90;;;;;;5105386;28;20345;-80
2022/12/12 09:15:50;;;;;;;37.07;21.13;;;1.80;99.90;;;;;;5105772;28;20233;-80
2022/12/12 09:18:18;;;;;;;34.57;20.70;;;2.00;99.90;;;;;;5104609;27;20223;-81
2022/12/12 09:20:48;;;;;;;35.77;20.10;;;2.20;99.90;;;;;;5107257;28;20233;-79
2022/12/12 09:23:15;;;;;;;34.43;21.17;;;2.50;99.90;;;;;;5091787;28;20267;-82
2022/12/12 09:25:44;;;;;;;30.77;20.13;;;2.60;99.90;;;;;;5093286;27;20231;-81
2022/12/12 09:28:11;;;;;;;34.30;21.03;;;2.80;99.90;;;;;;5090423;27;20244;-82
2022/12/12 09:30:38;;;;;;;31.13;20.50;;;2.90;99.90;;;;;;5098044;27;20225;-83
2022/12/12 09:33:06;;;;;;;32.17;20.03;;;3.10;99.90;;;;;;5085868;28;20230;-82
2022/12/12 09:35:32;;;;;;;30.43;20.17;;;3.20;99.90;;;;;;5091841;28;20233;-82
2022/12/12 09:37:59;;;;;;;32.00;20.60;;;3.40;99.90;;;;;;5098914;27;20222;-82
2022/12/12 09:40:30;;;;;;;32.47;21.63;;;3.40;99.90;;;;;;5077054;27;20489;-82
2022/12/12 09:43:01;;;;;;;31.93;20.87;;;3.50;99.90;;;;;;5102860;27;20238;-82
2022/12/12 09:45:28;;;;;;;35.27;22.13;;;3.50;99.90;;;;;;5074834;28;20597;-82
2022/12/12 09:47:59;;;;;;;34.50;22.33;;;3.50;99.90;;;;;;5090641;28;20226;-82
2022/12/12 09:50:30;;;;;;;32.87;21.17;;;3.40;99.90;;;;;;5090266;27;20602;-82
2022/12/12 09:53:00;;;;;;;35.43;21.43;;;3.40;99.90;;;;;;5087784;28;20305;-83
2022/12/12 09:55:38;;;;;;;29.63;21.03;;;3.30;99.90;;;;;;5075776;27;20225;-82
2022/12/12 09:58:14;;;;;;;35.50;22.80;;;3.10;99.50;;;;;;5120209;27;20230;-83
2022/12/12 10:00:47;;;;;;;35.67;21.53;;;2.80;99.60;;;;;;5088425;27;20769;-82
2022/12/12 10:03:26;;;;;;;32.80;21.60;;;2.60;99.70;;;;;;5088204;23;20219;-77
2022/12/12 10:05:58;;;;;;;33.93;21.67;;;2.30;99.60;;;;;;4999566;28;20222;-78
2022/12/12 10:08:31;;;;;;;36.10;21.50;;;2.00;99.90;;;;;;5015098;28;20744;-77
2022/12/12 10:11:05;;;;;;;37.47;22.53;;;1.70;99.90;;;;;;5012936;28;20236;-77
2022/12/12 10:13:35;;;;;;;34.10;22.13;;;1.50;99.90;;;;;;4998239;28;20981;-76
2022/12/12 10:16:07;;;;;;;37.00;21.33;;;1.30;99.90;;;;;;4988782;28;20228;-77
2022/12/12 10:18:38;;;;;;;35.57;19.93;;;1.10;99.90;;;;;;4975447;28;20358;-77
2022/12/12 10:21:14;;;;;;;36.33;21.60;;;0.90;99.90;;;;;;4976799;28;20222;-77
2022/12/12 10:23:45;;;;;;;35.73;21.83;;;0.70;99.90;;;;;;4971512;28;20521;-77
2022/12/12 10:26:17;;;;;;;36.67;20.80;;;0.60;99.90;;;;;;4970373;28;20301;-77
2022/12/12 10:28:46;;;;;;;36.10;21.67;;;0.40;99.90;;;;;;4991834;28;20226;-77
2022/12/12 10:31:25;;;;;;;38.37;21.10;;;0.30;99.90;;;;;;4974586;28;20235;-77
2022/12/12 10:34:04;;;;;;;35.27;19.87;;;0.30;99.90;;;;;;4977429;28;20599;-77
2022/12/12 10:36:48;;;;;;;30.30;18.13;;;0.20;99.90;;;;;;4996021;28;20229;-77
2022/12/12 10:39:25;;;;;;;26.47;16.27;;;0.10;99.90;;;;;;5000073;28;20229;-77
2022/12/12 10:41:57;;;;;;;28.40;16.07;;;0.00;99.90;;;;;;4989969;28;20244;-77
2022/12/12 10:44:54;;;;;;;31.93;17.27;;;-0.10;99.90;;;;;;4973474;28;20239;-77
2022/12/12 10:47:20;;;;;;;28.93;16.37;;;-0.20;99.90;;;;;;4972609;28;20234;-77
2022/12/12 10:49:48;;;;;;;30.47;17.00;;;-0.20;99.90;;;;;;4968241;28;20222;-77
2022/12/12 10:52:18;;;;;;;29.30;17.60;;;-0.30;99.90;;;;;;4977322;28;20728;-77
2022/12/12 10:54:48;;;;;;;29.20;16.70;;;-0.30;99.90;;;;;;4972631;28;20237;-77
2022/12/12 10:57:22;;;;;;;30.13;17.07;;;-0.40;99.90;;;;;;4974795;28;20211;-77
2022/12/12 10:59:52;;;;;;;34.77;18.27;;;-0.40;99.90;;;;;;4971069;28;20257;-77
2022/12/12 11:02:36;;;;;;;32.13;18.43;;;-0.40;99.90;;;;;;4983846;28;20227;-77
2022/12/12 11:05:16;;;;;;;29.43;17.00;;;-0.50;99.90;;;;;;4990173;28;20222;-77
2022/12/12 11:07:45;;;;;;;37.90;17.57;;;-0.50;99.90;;;;;;4988000;28;20236;-77
2022/12/12 11:10:31;;;;;;;33.93;18.43;;;-0.50;99.90;;;;;;4990941;28;20222;-77
2022/12/12 11:13:03;;;;;;;32.10;19.00;;;-0.50;99.90;;;;;;4974241;28;20229;-77
2022/12/12 11:15:39;;;;;;;30.97;18.33;;;-0.50;99.90;;;;;;4982666;28;21093;-77
2022/12/12 11:18:06;;;;;;;34.17;18.90;;;-0.50;99.90;;;;;;4977076;28;20828;-77
2022/12/12 11:20:33;;;;;;;33.27;18.20;;;-0.50;99.90;;;;;;4988819;28;20221;-77
2022/12/12 11:23:00;;;;;;;31.57;18.70;;;-0.50;99.90;;;;;;4984727;28;20661;-77
2022/12/12 11:25:29;;;;;;;27.80;17.43;;;-0.50;99.90;;;;;;4991013;28;20230;-77
2022/12/12 11:28:02;;;;;;;35.53;19.50;;;-0.50;99.90;;;;;;4986190;28;20221;-77
2022/12/12 11:30:35;;;;;;;29.47;18.43;;;-0.50;99.90;;;;;;4987064;28;20225;-78
2022/12/12 11:33:04;;;;;;;33.47;18.80;;;-0.50;99.90;;;;;;4993296;28;20222;-77
2022/12/12 11:35:35;;;;;;;36.00;18.90;;;-0.50;99.90;;;;;;4988099;28;20222;-77
2022/12/12 11:38:04;;;;;;;32.70;17.43;;;-0.40;99.90;;;;;;4986702;28;20226;-77
2022/12/12 11:40:33;;;;;;;31.20;18.53;;;-0.40;99.90;;;;;;4998889;28;20221;-77
2022/12/12 11:43:22;;;;;;;33.67;18.47;;;-0.40;99.90;;;;;;4997444;28;20235;-77
2022/12/12 11:46:17;;;;;;;62.13;19.60;;;-0.30;99.90;;;;;;4995625;28;20321;-77
2022/12/12 11:48:52;;;;;;;32.57;18.00;;;-0.30;99.90;;;;;;4979059;28;20222;-78
2022/12/12 11:51:35;;;;;;;33.23;19.00;;;-0.20;99.90;;;;;;4994815;28;20669;-77
2022/12/12 11:54:03;;;;;;;30.90;17.80;;;-0.20;99.90;;;;;;4996764;28;20303;-77
2022/12/12 11:56:39;;;;;;;32.07;19.17;;;-0.20;99.90;;;;;;4991167;28;20226;-77
2022/12/12 11:59:38;;;;;;;36.57;20.33;;;-0.20;99.90;;;;;;4989867;28;20224;-77
2022/12/12 12:02:41;;;;;;;34.57;19.40;;;-0.10;99.90;;;;;;4985493;28;20225;-77
2022/12/12 12:05:22;;;;;;;29.20;17.90;;;-0.10;99.90;;;;;;4988876;28;20254;-77
2022/12/12 12:08:02;;;;;;;40.10;19.03;;;-0.10;99.90;;;;;;4982496;28;20229;-77
2022/12/12 12:10:45;;;;;;;34.10;18.50;;;-0.10;99.90;;;;;;4987945;28;20224;-77
2022/12/12 12:13:28;;;;;;;28.80;16.83;;;-0.10;99.90;;;;;;4994042;28;20320;-77
2022/12/12 12:16:05;;;;;;;25.07;15.03;;;0.00;99.90;;;;;;4996622;28;20230;-77
2022/12/12 12:18:46;;;;;;;28.37;16.47;;;-0.10;99.90;;;;;;4987521;28;20341;-77
2022/12/12 12:21:26;;;;;;;32.17;17.70;;;-0.10;99.90;;;;;;4979900;28;20230;-77
2022/12/12 12:24:07;;;;;;;34.80;18.97;;;-0.10;99.90;;;;;;4975659;28;20229;-77
2022/12/12 12:26:39;;;;;;;33.17;19.43;;;-0.20;99.90;;;;;;5002133;28;20219;-77
2022/12/12 12:29:39;;;;;;;29.13;17.57;;;-0.20;99.90;;;;;;4993647;28;20607;-77
2022/12/12 12:32:12;;;;;;;31.13;18.50;;;-0.20;99.90;;;;;;4988837;28;20233;-77
2022/12/12 12:34:50;;;;;;;31.60;18.80;;;-0.20;99.90;;;;;;4990247;28;20718;-77
2022/12/12 12:37:32;;;;;;;28.77;18.97;;;-0.20;99.90;;;;;;4986070;28;20230;-77
2022/12/12 12:40:14;;;;;;;29.70;18.57;;;-0.30;99.90;;;;;;4976982;28;20222;-77
2022/12/12 12:42:58;;;;;;;30.07;18.20;;;-0.30;99.90;;;;;;4987361;28;20222;-77
2022/12/12 12:45:30;;;;;;;32.63;19.23;;;-0.30;99.90;;;;;;4990291;28;20238;-77
2022/12/12 12:48:01;;;;;;;30.77;17.77;;;-0.30;99.90;;;;;;4980214;28;20217;-78
2022/12/12 12:50:34;;;;;;;30.07;18.07;;;-0.40;99.90;;;;;;4987703;28;20860;-77
2022/12/12 12:53:05;;;;;;;27.27;17.30;;;-0.40;99.90;;;;;;4970744;28;20225;-79
2022/12/12 12:55:38;;;;;;;31.03;17.73;;;-0.40;99.90;;;;;;4967577;28;20257;-81
2022/12/12 12:58:06;;;;;;;29.37;17.13;;;-0.40;99.90;;;;;;4974296;28;20218;-78
2022/12/12 13:00:35;;;;;;;30.50;17.53;;;-0.50;99.90;;;;;;4969538;28;20218;-79